sensor_id;sensor_type;location;lat;lon;timestamp;P1;durP1;ratioP1;P2;durP2;ratioP2
34639;SDS011;22600;48.186;11.526;2022-07-10T00:02:08;0.75;;;0.75;;
34639;SDS011;22600;48.186;11.526;2022-07-10T00:04:34;0.73;;;0.57;;
34639;SDS011;22600;48.186;11.526;2022-07-10T00:06:59;0.60;;;0.60;;
34639;SDS011;22600;48.186;11.526;2022-07-10T00:09:27;0.70;;;0.60;;
34639;SDS011;22600;48.186;11.526;2022-07-10T00:11:53;0.60;;;0.60;;
34639;SDS011;22600;48.186;11.526;2022-07-10T00:14:18;0.75;;;0.60;;
34639;SDS011;22600;48.186;11.526;2022-07-10T00:16:45;0.85;;;0.70;;
34639;SDS011;22600;48.186;11.526;2022-07-10T00:19:10;0.70;;;0.60;;
34639;SDS011;22600;48.186;11.526;2022-07-10T00:21:36;0.90;;;0.80;;
34639;SDS011;22600;48.186;11.526;2022-07-10T00:24:02;1.08;;;0.70;;
34639;SDS011;22600;48.186;11.526;2022-07-10T00:26:27;0.60;;;0.60;;
34639;SDS011;22600;48.186;11.526;2022-07-10T00:28:53;1.00;;;0.60;;
34639;SDS011;22600;48.186;11.526;2022-07-10T00:31:19;0.65;;;0.60;;
34639;SDS011;22600;48.186;11.526;2022-07-10T00:33:45;0.82;;;0.65;;
34639;SDS011;22600;48.186;11.526;2022-07-10T00:36:11;0.80;;;0.80;;
34639;SDS011;22600;48.186;11.526;2022-07-10T00:38:36;0.88;;;0.70;;
34639;SDS011;22600;48.186;11.526;2022-07-10T00:41:02;0.85;;;0.60;;
34639;SDS011;22600;48.186;11.526;2022-07-10T00:43:28;0.73;;;0.73;;
34639;SDS011;22600;48.186;11.526;2022-07-10T00:45:53;0.60;;;0.60;;
34639;SDS011;22600;48.186;11.526;2022-07-10T00:48:19;0.90;;;0.60;;
34639;SDS011;22600;48.186;11.526;2022-07-10T00:50:44;0.93;;;0.60;;
34639;SDS011;22600;48.186;11.526;2022-07-10T00:53:11;0.75;;;0.68;;
34639;SDS011;22600;48.186;11.526;2022-07-10T00:55:38;0.90;;;0.70;;
34639;SDS011;22600;48.186;11.526;2022-07-10T00:58:06;0.73;;;0.60;;
34639;SDS011;22600;48.186;11.526;2022-07-10T01:00:33;0.63;;;0.60;;
34639;SDS011;22600;48.186;11.526;2022-07-10T01:03:00;0.85;;;0.65;;
34639;SDS011;22600;48.186;11.526;2022-07-10T01:05:25;0.60;;;0.60;;
34639;SDS011;22600;48.186;11.526;2022-07-10T01:07:51;0.63;;;0.60;;
34639;SDS011;22600;48.186;11.526;2022-07-10T01:10:16;0.50;;;0.50;;
34639;SDS011;22600;48.186;11.526;2022-07-10T01:12:42;0.77;;;0.60;;
34639;SDS011;22600;48.186;11.526;2022-07-10T01:15:08;0.80;;;0.60;;
34639;SDS011;22600;48.186;11.526;2022-07-10T01:17:34;0.57;;;0.57;;
34639;SDS011;22600;48.186;11.526;2022-07-10T01:20:04;0.60;;;0.60;;
34639;SDS011;22600;48.186;11.526;2022-07-10T01:22:33;0.80;;;0.70;;
34639;SDS011;22600;48.186;11.526;2022-07-10T01:25:00;0.85;;;0.80;;
34639;SDS011;22600;48.186;11.526;2022-07-10T01:27:26;0.60;;;0.50;;
34639;SDS011;22600;48.186;11.526;2022-07-10T01:29:51;0.77;;;0.60;;
34639;SDS011;22600;48.186;11.526;2022-07-10T01:32:18;0.90;;;0.75;;
34639;SDS011;22600;48.186;11.526;2022-07-10T01:34:44;0.65;;;0.60;;
34639;SDS011;22600;48.186;11.526;2022-07-10T01:37:12;0.50;;;0.50;;
34639;SDS011;22600;48.186;11.526;2022-07-10T01:39:37;0.70;;;0.65;;
34639;SDS011;22600;48.186;11.526;2022-07-10T01:42:03;0.68;;;0.63;;
34639;SDS011;22600;48.186;11.526;2022-07-10T01:44:29;1.05;;;0.80;;
34639;SDS011;22600;48.186;11.526;2022-07-10T01:46:54;0.80;;;0.70;;
34639;SDS011;22600;48.186;11.526;2022-07-10T01:49:20;0.60;;;0.52;;
34639;SDS011;22600;48.186;11.526;2022-07-10T01:51:45;0.60;;;0.60;;
34639;SDS011;22600;48.186;11.526;2022-07-10T01:54:11;0.55;;;0.55;;
34639;SDS011;22600;48.186;11.526;2022-07-10T01:56:37;0.57;;;0.50;;
34639;SDS011;22600;48.186;11.526;2022-07-10T01:59:03;0.77;;;0.70;;
34639;SDS011;22600;48.186;11.526;2022-07-10T02:01:29;0.60;;;0.50;;
34639;SDS011;22600;48.186;11.526;2022-07-10T02:03:55;1.13;;;0.60;;
34639;SDS011;22600;48.186;11.526;2022-07-10T02:06:39;0.93;;;0.70;;
34639;SDS011;22600;48.186;11.526;2022-07-10T02:09:05;0.70;;;0.52;;
34639;SDS011;22600;48.186;11.526;2022-07-10T02:11:30;0.70;;;0.63;;
34639;SDS011;22600;48.186;11.526;2022-07-10T02:13:56;0.70;;;0.60;;
34639;SDS011;22600;48.186;11.526;2022-07-10T02:16:21;0.52;;;0.50;;
34639;SDS011;22600;48.186;11.526;2022-07-10T02:18:47;0.60;;;0.60;;
34639;SDS011;22600;48.186;11.526;2022-07-10T02:21:12;0.80;;;0.57;;
34639;SDS011;22600;48.186;11.526;2022-07-10T02:23:38;0.50;;;0.50;;
34639;SDS011;22600;48.186;11.526;2022-07-10T02:26:05;0.70;;;0.60;;
34639;SDS011;22600;48.186;11.526;2022-07-10T02:28:31;0.70;;;0.60;;
34639;SDS011;22600;48.186;11.526;2022-07-10T02:30:57;0.70;;;0.60;;
34639;SDS011;22600;48.186;11.526;2022-07-10T02:33:23;0.50;;;0.50;;
34639;SDS011;22600;48.186;11.526;2022-07-10T02:35:48;0.70;;;0.63;;
34639;SDS011;22600;48.186;11.526;2022-07-10T02:38:14;0.75;;;0.55;;
34639;SDS011;22600;48.186;11.526;2022-07-10T02:40:39;0.70;;;0.60;;
34639;SDS011;22600;48.186;11.526;2022-07-10T02:43:05;0.60;;;0.60;;
34639;SDS011;22600;48.186;11.526;2022-07-10T02:45:31;0.60;;;0.50;;
34639;SDS011;22600;48.186;11.526;2022-07-10T02:47:56;0.75;;;0.65;;
34639;SDS011;22600;48.186;11.526;2022-07-10T02:50:22;0.60;;;0.50;;
34639;SDS011;22600;48.186;11.526;2022-07-10T02:52:47;0.70;;;0.70;;
34639;SDS011;22600;48.186;11.526;2022-07-10T02:55:13;0.60;;;0.60;;
34639;SDS011;22600;48.186;11.526;2022-07-10T02:57:38;0.60;;;0.52;;
34639;SDS011;22600;48.186;11.526;2022-07-10T03:00:04;0.60;;;0.60;;
34639;SDS011;22600;48.186;11.526;2022-07-10T03:02:30;0.65;;;0.60;;
34639;SDS011;22600;48.186;11.526;2022-07-10T03:04:56;0.63;;;0.50;;
34639;SDS011;22600;48.186;11.526;2022-07-10T03:07:21;1.08;;;0.60;;
34639;SDS011;22600;48.186;11.526;2022-07-10T03:09:47;0.63;;;0.60;;
34639;SDS011;22600;48.186;11.526;2022-07-10T03:12:12;0.70;;;0.68;;
34639;SDS011;22600;48.186;11.526;2022-07-10T03:14:38;0.63;;;0.50;;
34639;SDS011;22600;48.186;11.526;2022-07-10T03:17:04;0.70;;;0.60;;
34639;SDS011;22600;48.186;11.526;2022-07-10T03:19:30;0.68;;;0.60;;
34639;SDS011;22600;48.186;11.526;2022-07-10T03:21:55;0.70;;;0.55;;
34639;SDS011;22600;48.186;11.526;2022-07-10T03:24:21;0.65;;;0.60;;
34639;SDS011;22600;48.186;11.526;2022-07-10T03:26:47;0.77;;;0.57;;
34639;SDS011;22600;48.186;11.526;2022-07-10T03:29:12;0.70;;;0.70;;
34639;SDS011;22600;48.186;11.526;2022-07-10T03:31:38;0.50;;;0.50;;
34639;SDS011;22600;48.186;11.526;2022-07-10T03:34:03;0.50;;;0.50;;
34639;SDS011;22600;48.186;11.526;2022-07-10T03:36:29;0.60;;;0.60;;
34639;SDS011;22600;48.186;11.526;2022-07-10T03:38:55;0.55;;;0.55;;
34639;SDS011;22600;48.186;11.526;2022-07-10T03:41:21;0.70;;;0.60;;
34639;SDS011;22600;48.186;11.526;2022-07-10T03:43:47;0.60;;;0.50;;
34639;SDS011;22600;48.186;11.526;2022-07-10T03:46:12;0.70;;;0.60;;
34639;SDS011;22600;48.186;11.526;2022-07-10T03:48:38;0.50;;;0.50;;
34639;SDS011;22600;48.186;11.526;2022-07-10T03:51:03;0.52;;;0.52;;
34639;SDS011;22600;48.186;11.526;2022-07-10T03:53:29;0.55;;;0.52;;
34639;SDS011;22600;48.186;11.526;2022-07-10T03:55:54;1.10;;;0.70;;
34639;SDS011;22600;48.186;11.526;2022-07-10T03:58:20;0.50;;;0.50;;
34639;SDS011;22600;48.186;11.526;2022-07-10T04:00:46;0.52;;;0.50;;
34639;SDS011;22600;48.186;11.526;2022-07-10T04:03:12;0.60;;;0.50;;
34639;SDS011;22600;48.186;11.526;2022-07-10T04:05:38;0.50;;;0.50;;
34639;SDS011;22600;48.186;11.526;2022-07-10T04:08:04;0.73;;;0.50;;
34639;SDS011;22600;48.186;11.526;2022-07-10T04:10:31;0.63;;;0.60;;
34639;SDS011;22600;48.186;11.526;2022-07-10T04:12:57;0.80;;;0.60;;
34639;SDS011;22600;48.186;11.526;2022-07-10T04:15:22;0.82;;;0.70;;
34639;SDS011;22600;48.186;11.526;2022-07-10T04:17:49;0.60;;;0.50;;
34639;SDS011;22600;48.186;11.526;2022-07-10T04:20:15;0.60;;;0.60;;
34639;SDS011;22600;48.186;11.526;2022-07-10T04:22:42;0.60;;;0.50;;
34639;SDS011;22600;48.186;11.526;2022-07-10T04:25:08;0.68;;;0.50;;
34639;SDS011;22600;48.186;11.526;2022-07-10T04:27:34;0.50;;;0.50;;
34639;SDS011;22600;48.186;11.526;2022-07-10T04:30:00;0.50;;;0.50;;
34639;SDS011;22600;48.186;11.526;2022-07-10T04:32:26;0.60;;;0.60;;
34639;SDS011;22600;48.186;11.526;2022-07-10T04:34:52;0.60;;;0.60;;
34639;SDS011;22600;48.186;11.526;2022-07-10T04:37:18;0.77;;;0.60;;
34639;SDS011;22600;48.186;11.526;2022-07-10T04:39:44;0.63;;;0.60;;
34639;SDS011;22600;48.186;11.526;2022-07-10T04:42:10;0.60;;;0.50;;
34639;SDS011;22600;48.186;11.526;2022-07-10T04:44:35;0.60;;;0.60;;
34639;SDS011;22600;48.186;11.526;2022-07-10T04:47:01;0.60;;;0.60;;
34639;SDS011;22600;48.186;11.526;2022-07-10T04:49:27;0.50;;;0.50;;
34639;SDS011;22600;48.186;11.526;2022-07-10T04:51:53;0.75;;;0.55;;
34639;SDS011;22600;48.186;11.526;2022-07-10T04:54:20;0.80;;;0.60;;
34639;SDS011;22600;48.186;11.526;2022-07-10T04:56:45;0.45;;;0.40;;
34639;SDS011;22600;48.186;11.526;2022-07-10T04:59:11;0.50;;;0.50;;
34639;SDS011;22600;48.186;11.526;2022-07-10T05:01:36;0.60;;;0.60;;
34639;SDS011;22600;48.186;11.526;2022-07-10T05:04:02;0.65;;;0.60;;
34639;SDS011;22600;48.186;11.526;2022-07-10T05:06:28;0.57;;;0.50;;
34639;SDS011;22600;48.186;11.526;2022-07-10T05:08:54;0.90;;;0.70;;
34639;SDS011;22600;48.186;11.526;2022-07-10T05:11:20;0.50;;;0.50;;
34639;SDS011;22600;48.186;11.526;2022-07-10T05:13:47;0.55;;;0.45;;
34639;SDS011;22600;48.186;11.526;2022-07-10T05:16:13;0.73;;;0.50;;
34639;SDS011;22600;48.186;11.526;2022-07-10T05:18:39;0.45;;;0.45;;
34639;SDS011;22600;48.186;11.526;2022-07-10T05:21:05;0.95;;;0.68;;
34639;SDS011;22600;48.186;11.526;2022-07-10T05:23:31;0.90;;;0.65;;
34639;SDS011;22600;48.186;11.526;2022-07-10T05:25:57;0.60;;;0.50;;
34639;SDS011;22600;48.186;11.526;2022-07-10T05:28:22;0.50;;;0.40;;
34639;SDS011;22600;48.186;11.526;2022-07-10T05:30:48;0.60;;;0.50;;
34639;SDS011;22600;48.186;11.526;2022-07-10T05:33:14;0.55;;;0.50;;
34639;SDS011;22600;48.186;11.526;2022-07-10T05:35:40;0.50;;;0.50;;
34639;SDS011;22600;48.186;11.526;2022-07-10T05:38:06;0.52;;;0.52;;
34639;SDS011;22600;48.186;11.526;2022-07-10T05:40:32;0.60;;;0.60;;
34639;SDS011;22600;48.186;11.526;2022-07-10T05:42:57;0.70;;;0.50;;
34639;SDS011;22600;48.186;11.526;2022-07-10T05:45:23;0.52;;;0.50;;
34639;SDS011;22600;48.186;11.526;2022-07-10T05:47:49;0.40;;;0.40;;
34639;SDS011;22600;48.186;11.526;2022-07-10T05:50:15;0.50;;;0.50;;
34639;SDS011;22600;48.186;11.526;2022-07-10T05:52:41;0.50;;;0.50;;
34639;SDS011;22600;48.186;11.526;2022-07-10T05:55:07;0.50;;;0.50;;
34639;SDS011;22600;48.186;11.526;2022-07-10T05:57:33;0.60;;;0.60;;
34639;SDS011;22600;48.186;11.526;2022-07-10T05:59:59;0.57;;;0.50;;
34639;SDS011;22600;48.186;11.526;2022-07-10T06:02:25;1.00;;;0.60;;
34639;SDS011;22600;48.186;11.526;2022-07-10T06:04:51;0.50;;;0.50;;
34639;SDS011;22600;48.186;11.526;2022-07-10T06:07:16;0.73;;;0.60;;
34639;SDS011;22600;48.186;11.526;2022-07-10T06:09:42;0.77;;;0.60;;
34639;SDS011;22600;48.186;11.526;2022-07-10T06:12:08;0.50;;;0.50;;
34639;SDS011;22600;48.186;11.526;2022-07-10T06:14:34;0.82;;;0.60;;
34639;SDS011;22600;48.186;11.526;2022-07-10T06:17:00;0.50;;;0.40;;
34639;SDS011;22600;48.186;11.526;2022-07-10T06:19:25;0.50;;;0.47;;
34639;SDS011;22600;48.186;11.526;2022-07-10T06:21:51;0.50;;;0.50;;
34639;SDS011;22600;48.186;11.526;2022-07-10T06:24:38;0.52;;;0.50;;
34639;SDS011;22600;48.186;11.526;2022-07-10T06:27:04;0.63;;;0.60;;
34639;SDS011;22600;48.186;11.526;2022-07-10T06:29:30;0.47;;;0.47;;
34639;SDS011;22600;48.186;11.526;2022-07-10T06:31:55;0.60;;;0.60;;
34639;SDS011;22600;48.186;11.526;2022-07-10T06:34:21;0.55;;;0.47;;
34639;SDS011;22600;48.186;11.526;2022-07-10T06:36:47;0.52;;;0.52;;
34639;SDS011;22600;48.186;11.526;2022-07-10T06:39:12;0.70;;;0.50;;
34639;SDS011;22600;48.186;11.526;2022-07-10T06:41:38;0.40;;;0.40;;
34639;SDS011;22600;48.186;11.526;2022-07-10T06:44:04;0.60;;;0.50;;
34639;SDS011;22600;48.186;11.526;2022-07-10T06:46:29;0.60;;;0.52;;
34639;SDS011;22600;48.186;11.526;2022-07-10T06:48:56;0.70;;;0.55;;
34639;SDS011;22600;48.186;11.526;2022-07-10T06:51:22;0.80;;;0.55;;
34639;SDS011;22600;48.186;11.526;2022-07-10T06:53:47;0.50;;;0.50;;
34639;SDS011;22600;48.186;11.526;2022-07-10T06:56:13;0.60;;;0.60;;
34639;SDS011;22600;48.186;11.526;2022-07-10T06:58:41;0.70;;;0.50;;
34639;SDS011;22600;48.186;11.526;2022-07-10T07:01:07;0.40;;;0.40;;
34639;SDS011;22600;48.186;11.526;2022-07-10T07:03:32;0.50;;;0.50;;
34639;SDS011;22600;48.186;11.526;2022-07-10T07:05:58;0.45;;;0.45;;
34639;SDS011;22600;48.186;11.526;2022-07-10T07:08:24;0.70;;;0.60;;
34639;SDS011;22600;48.186;11.526;2022-07-10T07:10:50;0.60;;;0.50;;
34639;SDS011;22600;48.186;11.526;2022-07-10T07:13:15;0.50;;;0.50;;
34639;SDS011;22600;48.186;11.526;2022-07-10T07:15:41;0.43;;;0.43;;
34639;SDS011;22600;48.186;11.526;2022-07-10T07:18:16;0.52;;;0.52;;
34639;SDS011;22600;48.186;11.526;2022-07-10T07:20:41;0.70;;;0.60;;
34639;SDS011;22600;48.186;11.526;2022-07-10T07:23:26;0.45;;;0.45;;
34639;SDS011;22600;48.186;11.526;2022-07-10T07:25:52;0.50;;;0.50;;
34639;SDS011;22600;48.186;11.526;2022-07-10T07:28:18;0.47;;;0.40;;
34639;SDS011;22600;48.186;11.526;2022-07-10T07:30:45;0.50;;;0.50;;
34639;SDS011;22600;48.186;11.526;2022-07-10T07:33:12;0.63;;;0.55;;
34639;SDS011;22600;48.186;11.526;2022-07-10T07:35:38;0.60;;;0.47;;
34639;SDS011;22600;48.186;11.526;2022-07-10T07:38:04;0.52;;;0.50;;
34639;SDS011;22600;48.186;11.526;2022-07-10T07:40:30;0.65;;;0.57;;
34639;SDS011;22600;48.186;11.526;2022-07-10T07:42:56;0.57;;;0.52;;
34639;SDS011;22600;48.186;11.526;2022-07-10T07:45:22;0.82;;;0.52;;
34639;SDS011;22600;48.186;11.526;2022-07-10T07:47:49;0.50;;;0.50;;
34639;SDS011;22600;48.186;11.526;2022-07-10T07:50:21;0.55;;;0.55;;
34639;SDS011;22600;48.186;11.526;2022-07-10T07:52:48;0.50;;;0.50;;
34639;SDS011;22600;48.186;11.526;2022-07-10T07:55:14;0.40;;;0.40;;
34639;SDS011;22600;48.186;11.526;2022-07-10T07:57:42;0.60;;;0.50;;
34639;SDS011;22600;48.186;11.526;2022-07-10T08:00:08;0.40;;;0.40;;
34639;SDS011;22600;48.186;11.526;2022-07-10T08:02:35;0.50;;;0.50;;
34639;SDS011;22600;48.186;11.526;2022-07-10T08:05:01;0.40;;;0.40;;
34639;SDS011;22600;48.186;11.526;2022-07-10T08:10:12;0.50;;;0.50;;
34639;SDS011;22600;48.186;11.526;2022-07-10T08:12:40;0.47;;;0.40;;
34639;SDS011;22600;48.186;11.526;2022-07-10T08:15:08;0.70;;;0.60;;
34639;SDS011;22600;48.186;11.526;2022-07-10T08:17:35;0.60;;;0.60;;
34639;SDS011;22600;48.186;11.526;2022-07-10T08:20:02;0.50;;;0.50;;
34639;SDS011;22600;48.186;11.526;2022-07-10T08:22:28;0.50;;;0.50;;
34639;SDS011;22600;48.186;11.526;2022-07-10T08:24:53;0.50;;;0.50;;
34639;SDS011;22600;48.186;11.526;2022-07-10T08:27:21;0.50;;;0.50;;
34639;SDS011;22600;48.186;11.526;2022-07-10T08:29:47;0.60;;;0.60;;
34639;SDS011;22600;48.186;11.526;2022-07-10T08:32:12;0.65;;;0.55;;
34639;SDS011;22600;48.186;11.526;2022-07-10T08:34:38;0.40;;;0.40;;
34639;SDS011;22600;48.186;11.526;2022-07-10T08:37:03;0.60;;;0.50;;
34639;SDS011;22600;48.186;11.526;2022-07-10T08:39:29;0.40;;;0.40;;
34639;SDS011;22600;48.186;11.526;2022-07-10T08:41:56;0.40;;;0.40;;
34639;SDS011;22600;48.186;11.526;2022-07-10T08:44:22;0.68;;;0.60;;
34639;SDS011;22600;48.186;11.526;2022-07-10T08:46:48;0.50;;;0.47;;
34639;SDS011;22600;48.186;11.526;2022-07-10T08:49:14;0.50;;;0.50;;
34639;SDS011;22600;48.186;11.526;2022-07-10T08:51:47;0.50;;;0.50;;
34639;SDS011;22600;48.186;11.526;2022-07-10T08:54:42;0.57;;;0.40;;
34639;SDS011;22600;48.186;11.526;2022-07-10T08:57:09;0.50;;;0.50;;
34639;SDS011;22600;48.186;11.526;2022-07-10T08:59:36;0.50;;;0.50;;
34639;SDS011;22600;48.186;11.526;2022-07-10T09:02:01;0.73;;;0.47;;
34639;SDS011;22600;48.186;11.526;2022-07-10T09:04:27;0.50;;;0.50;;
34639;SDS011;22600;48.186;11.526;2022-07-10T09:06:53;0.50;;;0.50;;
34639;SDS011;22600;48.186;11.526;2022-07-10T09:09:20;0.68;;;0.50;;
34639;SDS011;22600;48.186;11.526;2022-07-10T09:11:47;0.65;;;0.50;;
34639;SDS011;22600;48.186;11.526;2022-07-10T09:14:16;0.60;;;0.55;;
34639;SDS011;22600;48.186;11.526;2022-07-10T09:16:43;0.40;;;0.40;;
34639;SDS011;22600;48.186;11.526;2022-07-10T09:21:44;0.68;;;0.50;;
34639;SDS011;22600;48.186;11.526;2022-07-10T09:24:11;0.50;;;0.50;;
34639;SDS011;22600;48.186;11.526;2022-07-10T09:26:38;0.47;;;0.47;;
34639;SDS011;22600;48.186;11.526;2022-07-10T09:29:09;0.60;;;0.50;;
34639;SDS011;22600;48.186;11.526;2022-07-10T09:31:51;0.45;;;0.40;;
34639;SDS011;22600;48.186;11.526;2022-07-10T09:39:51;0.40;;;0.40;;
34639;SDS011;22600;48.186;11.526;2022-07-10T09:42:27;0.50;;;0.50;;
34639;SDS011;22600;48.186;11.526;2022-07-10T09:47:36;0.40;;;0.40;;
34639;SDS011;22600;48.186;11.526;2022-07-10T09:50:03;0.63;;;0.60;;
34639;SDS011;22600;48.186;11.526;2022-07-10T09:52:29;0.40;;;0.32;;
34639;SDS011;22600;48.186;11.526;2022-07-10T09:54:55;0.60;;;0.47;;
34639;SDS011;22600;48.186;11.526;2022-07-10T09:57:22;0.40;;;0.40;;
34639;SDS011;22600;48.186;11.526;2022-07-10T09:59:51;0.60;;;0.50;;
34639;SDS011;22600;48.186;11.526;2022-07-10T10:02:18;0.40;;;0.40;;
34639;SDS011;22600;48.186;11.526;2022-07-10T10:04:46;0.60;;;0.50;;
34639;SDS011;22600;48.186;11.526;2022-07-10T10:07:13;0.55;;;0.55;;
34639;SDS011;22600;48.186;11.526;2022-07-10T10:09:43;0.50;;;0.40;;
34639;SDS011;22600;48.186;11.526;2022-07-10T10:12:35;0.50;;;0.40;;
34639;SDS011;22600;48.186;11.526;2022-07-10T10:15:10;0.40;;;0.40;;
34639;SDS011;22600;48.186;11.526;2022-07-10T10:17:36;0.50;;;0.50;;
34639;SDS011;22600;48.186;11.526;2022-07-10T10:20:05;0.47;;;0.47;;
34639;SDS011;22600;48.186;11.526;2022-07-10T10:22:51;0.60;;;0.50;;
34639;SDS011;22600;48.186;11.526;2022-07-10T10:25:20;0.68;;;0.50;;
34639;SDS011;22600;48.186;11.526;2022-07-10T10:27:48;0.50;;;0.50;;
34639;SDS011;22600;48.186;11.526;2022-07-10T10:30:15;0.65;;;0.50;;
34639;SDS011;22600;48.186;11.526;2022-07-10T10:32:41;0.60;;;0.52;;
34639;SDS011;22600;48.186;11.526;2022-07-10T10:35:06;0.40;;;0.40;;
34639;SDS011;22600;48.186;11.526;2022-07-10T10:37:35;0.40;;;0.40;;
34639;SDS011;22600;48.186;11.526;2022-07-10T10:40:05;0.60;;;0.40;;
34639;SDS011;22600;48.186;11.526;2022-07-10T10:48:12;0.50;;;0.50;;
34639;SDS011;22600;48.186;11.526;2022-07-10T10:53:12;0.40;;;0.40;;
34639;SDS011;22600;48.186;11.526;2022-07-10T10:56:21;0.50;;;0.50;;
34639;SDS011;22600;48.186;11.526;2022-07-10T10:58:43;0.50;;;0.50;;
34639;SDS011;22600;48.186;11.526;2022-07-10T11:06:41;0.47;;;0.40;;
34639;SDS011;22600;48.186;11.526;2022-07-10T11:09:30;0.40;;;0.40;;
34639;SDS011;22600;48.186;11.526;2022-07-10T11:11:58;0.50;;;0.47;;
34639;SDS011;22600;48.186;11.526;2022-07-10T11:14:24;0.55;;;0.47;;
34639;SDS011;22600;48.186;11.526;2022-07-10T11:16:53;0.40;;;0.40;;
34639;SDS011;22600;48.186;11.526;2022-07-10T11:19:23;0.40;;;0.40;;
34639;SDS011;22600;48.186;11.526;2022-07-10T11:21:53;0.40;;;0.40;;
34639;SDS011;22600;48.186;11.526;2022-07-10T11:26:58;0.40;;;0.40;;
34639;SDS011;22600;48.186;11.526;2022-07-10T11:29:32;0.50;;;0.40;;
34639;SDS011;22600;48.186;11.526;2022-07-10T11:32:02;0.57;;;0.47;;
34639;SDS011;22600;48.186;11.526;2022-07-10T11:34:34;0.50;;;0.50;;
34639;SDS011;22600;48.186;11.526;2022-07-10T11:37:01;0.50;;;0.50;;
34639;SDS011;22600;48.186;11.526;2022-07-10T11:39:27;0.40;;;0.40;;
34639;SDS011;22600;48.186;11.526;2022-07-10T11:41:53;0.43;;;0.43;;
34639;SDS011;22600;48.186;11.526;2022-07-10T11:44:18;0.55;;;0.55;;
34639;SDS011;22600;48.186;11.526;2022-07-10T11:46:46;0.50;;;0.50;;
34639;SDS011;22600;48.186;11.526;2022-07-10T11:49:14;0.40;;;0.40;;
34639;SDS011;22600;48.186;11.526;2022-07-10T11:51:40;0.50;;;0.40;;
34639;SDS011;22600;48.186;11.526;2022-07-10T11:54:13;0.50;;;0.50;;
34639;SDS011;22600;48.186;11.526;2022-07-10T11:56:41;0.60;;;0.50;;
34639;SDS011;22600;48.186;11.526;2022-07-10T11:59:12;0.60;;;0.40;;
34639;SDS011;22600;48.186;11.526;2022-07-10T12:01:42;0.40;;;0.40;;
34639;SDS011;22600;48.186;11.526;2022-07-10T12:06:38;0.43;;;0.43;;
34639;SDS011;22600;48.186;11.526;2022-07-10T12:09:06;0.65;;;0.60;;
34639;SDS011;22600;48.186;11.526;2022-07-10T12:11:33;0.40;;;0.40;;
34639;SDS011;22600;48.186;11.526;2022-07-10T12:14:10;0.52;;;0.52;;
34639;SDS011;22600;48.186;11.526;2022-07-10T12:16:37;0.40;;;0.40;;
34639;SDS011;22600;48.186;11.526;2022-07-10T12:19:03;0.50;;;0.50;;
34639;SDS011;22600;48.186;11.526;2022-07-10T12:21:31;0.50;;;0.40;;
34639;SDS011;22600;48.186;11.526;2022-07-10T12:23:57;0.50;;;0.50;;
34639;SDS011;22600;48.186;11.526;2022-07-10T12:26:30;0.50;;;0.50;;
34639;SDS011;22600;48.186;11.526;2022-07-10T12:29:01;0.50;;;0.40;;
34639;SDS011;22600;48.186;11.526;2022-07-10T12:31:31;0.40;;;0.40;;
34639;SDS011;22600;48.186;11.526;2022-07-10T12:33:59;0.47;;;0.45;;
34639;SDS011;22600;48.186;11.526;2022-07-10T12:39:15;0.40;;;0.40;;
34639;SDS011;22600;48.186;11.526;2022-07-10T12:41:53;0.40;;;0.40;;
34639;SDS011;22600;48.186;11.526;2022-07-10T12:47:09;0.73;;;0.60;;
34639;SDS011;22600;48.186;11.526;2022-07-10T12:52:32;0.40;;;0.40;;
34639;SDS011;22600;48.186;11.526;2022-07-10T12:55:09;0.50;;;0.50;;
34639;SDS011;22600;48.186;11.526;2022-07-10T13:02:48;0.40;;;0.40;;
34639;SDS011;22600;48.186;11.526;2022-07-10T13:10:36;0.45;;;0.45;;
34639;SDS011;22600;48.186;11.526;2022-07-10T13:13:03;0.50;;;0.50;;
34639;SDS011;22600;48.186;11.526;2022-07-10T13:15:29;0.50;;;0.47;;
34639;SDS011;22600;48.186;11.526;2022-07-10T13:17:55;0.50;;;0.50;;
34639;SDS011;22600;48.186;11.526;2022-07-10T13:20:21;0.40;;;0.40;;
34639;SDS011;22600;48.186;11.526;2022-07-10T13:22:47;0.50;;;0.50;;
34639;SDS011;22600;48.186;11.526;2022-07-10T13:25:13;0.50;;;0.50;;
34639;SDS011;22600;48.186;11.526;2022-07-10T13:27:39;0.35;;;0.35;;
34639;SDS011;22600;48.186;11.526;2022-07-10T13:30:04;0.38;;;0.38;;
34639;SDS011;22600;48.186;11.526;2022-07-10T13:32:30;0.35;;;0.35;;
34639;SDS011;22600;48.186;11.526;2022-07-10T13:34:56;0.47;;;0.40;;
34639;SDS011;22600;48.186;11.526;2022-07-10T13:37:22;0.52;;;0.50;;
34639;SDS011;22600;48.186;11.526;2022-07-10T13:39:47;0.50;;;0.50;;
34639;SDS011;22600;48.186;11.526;2022-07-10T13:42:13;0.50;;;0.47;;
34639;SDS011;22600;48.186;11.526;2022-07-10T13:44:39;0.70;;;0.60;;
34639;SDS011;22600;48.186;11.526;2022-07-10T13:47:04;0.40;;;0.40;;
34639;SDS011;22600;48.186;11.526;2022-07-10T13:49:30;1.02;;;0.50;;
34639;SDS011;22600;48.186;11.526;2022-07-10T13:51:56;0.50;;;0.50;;
34639;SDS011;22600;48.186;11.526;2022-07-10T13:54:23;0.50;;;0.40;;
34639;SDS011;22600;48.186;11.526;2022-07-10T13:56:50;1.50;;;0.60;;
34639;SDS011;22600;48.186;11.526;2022-07-10T13:59:18;0.47;;;0.45;;
34639;SDS011;22600;48.186;11.526;2022-07-10T14:01:43;0.65;;;0.47;;
34639;SDS011;22600;48.186;11.526;2022-07-10T14:04:09;12.23;;;1.90;;
34639;SDS011;22600;48.186;11.526;2022-07-10T14:06:35;8.80;;;1.50;;
34639;SDS011;22600;48.186;11.526;2022-07-10T14:09:00;5.40;;;1.30;;
34639;SDS011;22600;48.186;11.526;2022-07-10T14:11:26;6.60;;;1.30;;
34639;SDS011;22600;48.186;11.526;2022-07-10T14:13:51;5.15;;;1.63;;
34639;SDS011;22600;48.186;11.526;2022-07-10T14:16:17;8.65;;;1.48;;
34639;SDS011;22600;48.186;11.526;2022-07-10T14:18:43;5.65;;;1.17;;
34639;SDS011;22600;48.186;11.526;2022-07-10T14:21:09;3.53;;;1.30;;
34639;SDS011;22600;48.186;11.526;2022-07-10T14:23:37;5.20;;;1.30;;
34639;SDS011;22600;48.186;11.526;2022-07-10T14:26:05;6.05;;;1.10;;
34639;SDS011;22600;48.186;11.526;2022-07-10T14:28:31;7.13;;;1.50;;
34639;SDS011;22600;48.186;11.526;2022-07-10T14:30:59;5.20;;;1.40;;
34639;SDS011;22600;48.186;11.526;2022-07-10T14:33:28;4.45;;;1.00;;
34639;SDS011;22600;48.186;11.526;2022-07-10T14:35:54;4.38;;;1.20;;
34639;SDS011;22600;48.186;11.526;2022-07-10T14:38:19;4.45;;;1.30;;
34639;SDS011;22600;48.186;11.526;2022-07-10T14:40:45;4.85;;;1.25;;
34639;SDS011;22600;48.186;11.526;2022-07-10T14:43:11;4.57;;;1.38;;
34639;SDS011;22600;48.186;11.526;2022-07-10T14:45:36;3.63;;;1.15;;
34639;SDS011;22600;48.186;11.526;2022-07-10T14:48:02;6.25;;;1.50;;
34639;SDS011;22600;48.186;11.526;2022-07-10T14:50:28;3.22;;;1.20;;
34639;SDS011;22600;48.186;11.526;2022-07-10T14:52:53;6.72;;;1.33;;
34639;SDS011;22600;48.186;11.526;2022-07-10T14:55:19;8.00;;;1.10;;
34639;SDS011;22600;48.186;11.526;2022-07-10T14:57:44;24.90;;;1.55;;
34639;SDS011;22600;48.186;11.526;2022-07-10T15:00:11;4.28;;;1.10;;
34639;SDS011;22600;48.186;11.526;2022-07-10T15:02:37;3.75;;;1.23;;
34639;SDS011;22600;48.186;11.526;2022-07-10T15:05:03;5.82;;;1.20;;
34639;SDS011;22600;48.186;11.526;2022-07-10T15:07:29;2.92;;;1.23;;
34639;SDS011;22600;48.186;11.526;2022-07-10T15:09:54;7.90;;;1.05;;
34639;SDS011;22600;48.186;11.526;2022-07-10T15:12:20;5.55;;;1.20;;
34639;SDS011;22600;48.186;11.526;2022-07-10T15:14:46;4.40;;;1.30;;
34639;SDS011;22600;48.186;11.526;2022-07-10T15:17:11;5.85;;;1.20;;
34639;SDS011;22600;48.186;11.526;2022-07-10T15:19:37;4.55;;;1.27;;
34639;SDS011;22600;48.186;11.526;2022-07-10T15:22:03;4.55;;;1.20;;
34639;SDS011;22600;48.186;11.526;2022-07-10T15:24:29;4.72;;;1.25;;